Time,TemperatureF,DewpointF,PressureIn,WindDirection,WindDirectionDegrees,WindSpeedMPH,WindSpeedGustMPH,Humidity,HourlyPrecipIn,Conditions,Clouds,dailyrainin,SoftwareType,DateUTC
2013-01-10 00:00:00,36.9,20.4,28.26,WNW,292,9.8,32.0,51,0.00,,---,0.00,VWS V14.01,2013-01-10 05:00:00,
2013-01-10 00:02:00,36.7,20.3,28.26,NNW,338,21.5,21.5,51,0.00,,---,0.00,VWS V14.01,2013-01-10 05:02:00,
2013-01-10 00:07:00,36.7,20.3,28.26,WSW,248,6.0,13.2,51,0.00,,---,0.00,VWS V14.01,2013-01-10 05:07:00,
2013-01-10 00:12:00,36.3,19.0,28.26,NNW,338,10.1,10.1,49,0.00,,---,0.00,VWS V14.01,2013-01-10 05:12:00,
2013-01-10 00:17:00,36.1,18.8,28.26,NNW,338,5.6,8.1,49,0.00,,---,0.00,VWS V14.01,2013-01-10 05:17:00,
2013-01-10 00:22:00,35.8,18.5,28.26,WNW,292,8.1,8.1,49,0.00,,---,0.00,VWS V14.01,2013-01-10 05:22:00,
2013-01-10 00:27:00,35.6,16.9,28.29,WSW,248,14.1,14.8,46,0.00,,---,0.00,VWS V14.01,2013-01-10 05:27:00,
2013-01-10 00:32:00,35.6,17.4,28.29,WNW,292,17.2,17.7,47,0.00,,---,0.00,VWS V14.01,2013-01-10 05:32:00,
2013-01-10 00:37:00,35.4,17.7,28.29,NNE,22,11.0,11.0,48,0.00,,---,0.00,VWS V14.01,2013-01-10 05:37:00,
2013-01-10 00:42:00,35.4,18.6,28.29,ESE,112,12.5,12.5,50,0.00,,---,0.00,VWS V14.01,2013-01-10 05:42:00,
2013-01-10 00:47:00,35.2,17.5,28.29,WNW,292,10.5,16.1,48,0.00,,---,0.00,VWS V14.01,2013-01-10 05:47:00,
2013-01-10 00:52:00,35.2,18.5,28.32,NNW,338,13.4,13.4,50,0.00,,---,0.00,VWS V14.01,2013-01-10 05:52:00,
2013-01-10 00:57:00,35.1,18.3,28.32,NNW,338,6.3,11.0,50,0.00,,---,0.00,VWS V14.01,2013-01-10 05:57:00,
2013-01-10 01:02:00,35.1,18.8,28.32,NNW,338,6.0,10.5,51,0.00,,---,0.00,VWS V14.01,2013-01-10 06:02:00,
2013-01-10 01:07:00,35.1,18.8,28.29,WNW,292,16.6,16.6,51,0.00,,---,0.00,VWS V14.01,2013-01-10 06:07:00,
2013-01-10 01:12:00,35.1,19.2,28.29,NNW,338,8.7,11.4,52,0.00,,---,0.00,VWS V14.01,2013-01-10 06:12:00,
2013-01-10 01:17:00,35.2,18.9,28.29,WNW,292,8.5,17.0,51,0.00,,---,0.00,VWS V14.01,2013-01-10 06:17:00,
2013-01-10 01:22:00,35.1,19.2,28.32,West,270,5.8,15.4,52,0.00,,---,0.00,VWS V14.01,2013-01-10 06:22:00,
2013-01-10 01:27:00,35.2,19.4,28.32,NNW,338,14.8,23.9,52,0.00,,---,0.00,VWS V14.01,2013-01-10 06:27:00,
2013-01-10 01:32:00,35.4,20.0,28.32,WSW,248,12.3,12.3,53,0.00,,---,0.00,VWS V14.01,2013-01-10 06:32:00,
2013-01-10 01:37:00,35.1,19.7,28.32,WNW,292,6.0,7.2,53,0.00,,---,0.00,VWS V14.01,2013-01-10 06:37:00,
2013-01-10 01:42:00,35.1,20.1,28.32,WNW,292,23.9,23.9,54,0.00,,---,0.00,VWS V14.01,2013-01-10 06:42:00,
2013-01-10 01:47:00,35.1,20.1,28.32,NW,315,5.6,12.5,54,0.00,,---,0.00,VWS V14.01,2013-01-10 06:47:00,
2013-01-10 01:52:00,35.1,20.1,28.32,WNW,292,21.9,21.9,54,0.00,,---,0.00,VWS V14.01,2013-01-10 06:52:00,
2013-01-10 01:57:00,35.1,21.0,28.32,NNW,338,13.0,14.3,56,0.00,,---,0.00,VWS V14.01,2013-01-10 06:57:00,
2013-01-10 02:02:00,35.1,20.5,28.32,NNW,338,12.5,13.6,55,0.00,,---,0.00,VWS V14.01,2013-01-10 07:02:00,
2013-01-10 02:07:00,35.1,21.8,28.35,NNE,22,6.3,6.3,58,0.00,,---,0.00,VWS V14.01,2013-01-10 07:07:00,
2013-01-10 02:12:00,35.1,21.4,28.35,NNW,338,10.7,24.4,57,0.00,,---,0.00,VWS V14.01,2013-01-10 07:12:00,
2013-01-10 02:17:00,34.9,21.2,28.35,West,270,8.7,11.0,57,0.00,,---,0.00,VWS V14.01,2013-01-10 07:17:00,
2013-01-10 02:22:00,34.7,21.5,28.35,NNW,338,10.5,18.6,58,0.00,,---,0.00,VWS V14.01,2013-01-10 07:22:00,
2013-01-10 02:27:00,34.5,21.3,28.35,NW,315,10.7,17.2,58,0.00,,---,0.00,VWS V14.01,2013-01-10 07:27:00,
2013-01-10 02:32:00,34.2,20.1,28.35,West,270,13.2,13.2,56,0.00,,---,0.00,VWS V14.01,2013-01-10 07:32:00,
2013-01-10 02:37:00,34.0,19.1,28.35,South,180,14.3,17.0,54,0.00,,---,0.00,VWS V14.01,2013-01-10 07:37:00,
2013-01-10 02:42:00,33.8,18.5,28.35,WNW,292,8.5,9.6,53,0.00,,---,0.00,VWS V14.01,2013-01-10 07:42:00,
2013-01-10 02:47:00,33.6,18.3,28.35,WNW,292,10.3,11.0,53,0.00,,---,0.00,VWS V14.01,2013-01-10 07:47:00,
2013-01-10 02:52:00,33.3,16.6,28.38,WNW,292,14.8,14.8,50,0.00,,---,0.00,VWS V14.01,2013-01-10 07:52:00,
2013-01-10 02:57:00,33.3,17.1,28.38,WSW,248,10.1,11.9,51,0.00,,---,0.00,VWS V14.01,2013-01-10 07:57:00,
2013-01-10 03:02:00,33.3,16.6,28.38,NNE,22,15.2,15.2,50,0.00,,---,0.00,VWS V14.01,2013-01-10 08:02:00,
2013-01-10 03:07:00,33.1,16.5,28.38,WNW,292,11.0,11.0,50,0.00,,---,0.00,VWS V14.01,2013-01-10 08:07:00,
2013-01-10 03:12:00,32.9,16.3,28.38,WNW,292,15.4,15.4,50,0.00,,---,0.00,VWS V14.01,2013-01-10 08:12:00,
2013-01-10 03:17:00,32.9,16.3,28.38,WNW,292,12.8,15.2,50,0.00,,---,0.00,VWS V14.01,2013-01-10 08:17:00,
2013-01-10 03:22:00,32.5,16.4,28.35,NW,315,17.0,17.0,51,0.00,,---,0.00,VWS V14.01,2013-01-10 08:22:00,
2013-01-10 03:27:00,32.5,16.0,28.35,WSW,248,11.0,11.0,50,0.00,,---,0.00,VWS V14.01,2013-01-10 08:27:00,
2013-01-10 03:32:00,32.4,16.3,28.35,WNW,292,14.5,25.3,51,0.00,,---,0.00,VWS V14.01,2013-01-10 08:32:00,
2013-01-10 03:37:00,32.0,16.8,28.41,WNW,292,5.8,6.5,53,0.00,,---,0.00,VWS V14.01,2013-01-10 08:37:00,
2013-01-10 03:42:00,32.0,16.4,28.41,WNW,292,17.5,17.5,52,0.00,,---,0.00,VWS V14.01,2013-01-10 08:42:00,
2013-01-10 03:47:00,32.2,16.5,28.41,NNW,338,10.5,10.5,52,0.00,,---,0.00,VWS V14.01,2013-01-10 08:47:00,
2013-01-10 03:52:00,31.8,16.6,28.41,WNW,292,4.0,4.0,53,0.00,,---,0.00,VWS V14.01,2013-01-10 08:52:00,
2013-01-10 03:57:00,31.8,16.6,28.41,NNW,338,9.4,9.4,53,0.00,,---,0.00,VWS V14.01,2013-01-10 08:57:00,
2013-01-10 04:02:00,31.6,16.9,28.41,NNW,338,16.6,16.6,54,0.00,,---,0.00,VWS V14.01,2013-01-10 09:02:00,
2013-01-10 04:07:00,31.6,17.3,28.41,WNW,292,10.1,11.4,55,0.00,,---,0.00,VWS V14.01,2013-01-10 09:07:00,
2013-01-10 04:12:00,31.6,17.3,28.41,WNW,292,7.6,11.4,55,0.00,,---,0.00,VWS V14.01,2013-01-10 09:12:00,
2013-01-10 04:17:00,31.5,17.6,28.41,NNW,338,10.7,10.7,56,0.00,,---,0.00,VWS V14.01,2013-01-10 09:17:00,
2013-01-10 04:22:00,31.6,17.8,28.41,WNW,292,13.9,13.9,56,0.00,,---,0.00,VWS V14.01,2013-01-10 09:22:00,
2013-01-10 04:27:00,31.6,17.8,28.41,WNW,292,7.6,8.5,56,0.00,,---,0.00,VWS V14.01,2013-01-10 09:27:00,
2013-01-10 04:32:00,31.3,17.8,28.41,NW,315,8.1,8.1,57,0.00,,---,0.00,VWS V14.01,2013-01-10 09:32:00,
2013-01-10 04:37:00,31.3,17.8,28.41,WSW,248,5.4,7.6,57,0.00,,---,0.00,VWS V14.01,2013-01-10 09:37:00,
2013-01-10 04:42:00,30.9,17.9,28.41,WNW,292,8.5,8.5,58,0.00,,---,0.00,VWS V14.01,2013-01-10 09:42:00,
2013-01-10 04:47:00,31.1,18.5,28.41,NNW,338,16.8,16.8,59,0.00,,---,0.00,VWS V14.01,2013-01-10 09:47:00,
2013-01-10 04:52:00,30.9,18.3,28.44,NNW,338,5.6,7.2,59,0.00,,---,0.00,VWS V14.01,2013-01-10 09:52:00,
2013-01-10 04:57:00,30.9,18.3,28.44,NNW,338,3.6,6.0,59,0.00,,---,0.00,VWS V14.01,2013-01-10 09:57:00,
2013-01-10 05:02:00,30.6,18.0,28.44,NNW,338,8.1,8.7,59,0.00,,---,0.00,VWS V14.01,2013-01-10 10:02:00,
2013-01-10 05:07:00,30.6,18.0,28.44,WNW,292,17.7,17.7,59,0.00,,---,0.00,VWS V14.01,2013-01-10 10:07:00,
2013-01-10 05:12:00,30.6,18.0,28.44,NNW,338,6.0,10.5,59,0.00,,---,0.00,VWS V14.01,2013-01-10 10:12:00,
2013-01-10 05:17:00,30.6,18.0,28.44,WNW,292,12.5,12.5,59,0.00,,---,0.00,VWS V14.01,2013-01-10 10:17:00,
2013-01-10 05:22:00,30.2,18.0,28.44,WNW,292,8.1,13.0,60,0.00,,---,0.00,VWS V14.01,2013-01-10 10:22:00,
2013-01-10 05:27:00,30.2,18.4,28.44,NNW,338,7.8,15.2,61,0.00,,---,0.00,VWS V14.01,2013-01-10 10:27:00,
2013-01-10 05:32:00,30.2,18.4,28.44,WNW,292,9.8,9.8,61,0.00,,---,0.00,VWS V14.01,2013-01-10 10:32:00,
2013-01-10 05:37:00,30.2,18.4,28.44,NW,315,10.5,10.5,61,0.00,,---,0.00,VWS V14.01,2013-01-10 10:37:00,
2013-01-10 05:42:00,30.2,18.4,28.44,WNW,292,7.2,7.2,61,0.00,,---,0.00,VWS V14.01,2013-01-10 10:42:00,
2013-01-10 05:47:00,30.2,18.4,28.44,NNW,338,4.3,4.5,61,0.00,,---,0.00,VWS V14.01,2013-01-10 10:47:00,
2013-01-10 05:52:00,30.0,18.6,28.44,WNW,292,5.6,7.6,62,0.00,,---,0.00,VWS V14.01,2013-01-10 10:52:00,
2013-01-10 05:57:00,30.4,17.8,28.44,WNW,292,8.1,8.7,59,0.00,,---,0.00,VWS V14.01,2013-01-10 10:57:00,
2013-01-10 06:02:00,30.2,18.0,28.44,WNW,292,7.4,11.4,60,0.00,,---,0.00,VWS V14.01,2013-01-10 11:02:00,
2013-01-10 06:07:00,30.0,17.8,28.44,NNW,338,3.8,6.3,60,0.00,,---,0.00,VWS V14.01,2013-01-10 11:07:00,
2013-01-10 06:12:00,29.8,17.7,28.44,WNW,292,5.6,5.8,60,0.00,,---,0.00,VWS V14.01,2013-01-10 11:12:00,
2013-01-10 06:17:00,29.7,17.9,28.44,WNW,292,6.5,6.5,61,0.00,,---,0.00,VWS V14.01,2013-01-10 11:17:00,
2013-01-10 06:22:00,29.8,18.0,28.44,NNW,338,2.9,4.3,61,0.00,,---,0.00,VWS V14.01,2013-01-10 11:22:00,
2013-01-10 06:27:00,29.7,17.9,28.44,WSW,248,6.7,10.5,61,0.00,,---,0.00,VWS V14.01,2013-01-10 11:27:00,
2013-01-10 06:32:00,29.8,17.7,28.44,WNW,292,6.0,6.0,60,0.00,,---,0.00,VWS V14.01,2013-01-10 11:32:00,
2013-01-10 06:37:00,29.7,17.9,28.47,NW,315,8.1,8.1,61,0.00,,---,0.00,VWS V14.01,2013-01-10 11:37:00,
2013-01-10 06:42:00,29.8,17.7,28.47,WNW,292,6.3,7.6,60,0.00,,---,0.00,VWS V14.01,2013-01-10 11:42:00,
2013-01-10 06:47:00,29.5,17.3,28.47,WNW,292,6.3,6.5,60,0.00,,---,0.00,VWS V14.01,2013-01-10 11:47:00,
2013-01-10 06:52:00,29.5,17.7,28.47,WNW,292,4.0,4.0,61,0.00,,---,0.00,VWS V14.01,2013-01-10 11:52:00,
2013-01-10 06:57:00,29.1,17.4,28.47,WNW,292,2.0,6.3,61,0.00,,---,0.00,VWS V14.01,2013-01-10 11:57:00,
2013-01-10 07:02:00,29.1,17.4,28.47,WSW,248,2.7,2.7,61,0.00,,---,0.00,VWS V14.01,2013-01-10 12:02:00,
2013-01-10 07:07:00,29.3,17.5,28.50,WNW,292,4.0,7.6,61,0.00,,---,0.00,VWS V14.01,2013-01-10 12:07:00,
2013-01-10 07:12:00,29.3,17.1,28.50,WNW,292,5.6,5.6,60,0.00,,---,0.00,VWS V14.01,2013-01-10 12:12:00,
2013-01-10 07:17:00,29.1,17.4,28.50,NW,315,5.4,7.8,61,0.00,,---,0.00,VWS V14.01,2013-01-10 12:17:00,
2013-01-10 07:22:00,29.1,17.0,28.50,WNW,292,6.0,8.5,60,0.00,,---,0.00,VWS V14.01,2013-01-10 12:22:00,
2013-01-10 07:27:00,29.1,17.4,28.50,NNW,338,6.5,6.5,61,0.00,,---,0.00,VWS V14.01,2013-01-10 12:27:00,
2013-01-10 07:32:00,29.3,17.1,28.50,NW,315,7.6,7.6,60,0.00,,---,0.00,VWS V14.01,2013-01-10 12:32:00,
2013-01-10 07:37:00,30.2,18.0,28.47,WNW,292,4.9,5.6,60,0.00,,---,0.00,VWS V14.01,2013-01-10 12:37:00,
2013-01-10 07:42:00,31.1,17.7,28.47,West,270,4.7,6.0,57,0.00,,---,0.00,VWS V14.01,2013-01-10 12:42:00,
2013-01-10 07:47:00,31.3,17.8,28.47,WNW,292,7.8,7.8,57,0.00,,---,0.00,VWS V14.01,2013-01-10 12:47:00,
2013-01-10 07:52:00,31.1,17.7,28.50,WSW,248,6.5,6.5,57,0.00,,---,0.00,VWS V14.01,2013-01-10 12:52:00,
2013-01-10 07:57:00,32.2,18.3,28.50,NW,315,8.7,8.7,56,0.00,,---,0.00,VWS V14.01,2013-01-10 12:57:00,
2013-01-10 08:02:00,33.1,18.7,28.50,West,270,6.0,6.0,55,0.00,,---,0.00,VWS V14.01,2013-01-10 13:02:00,
2013-01-10 08:07:00,33.3,18.0,28.52,NNW,338,6.0,8.5,53,0.00,,---,0.00,VWS V14.01,2013-01-10 13:07:00,
2013-01-10 08:12:00,33.8,18.5,28.52,WNW,292,3.6,4.0,53,0.00,,---,0.00,VWS V14.01,2013-01-10 13:12:00,
2013-01-10 08:17:00,34.2,18.4,28.52,WNW,292,4.7,5.8,52,0.00,,---,0.00,VWS V14.01,2013-01-10 13:17:00,
2013-01-10 08:22:00,34.0,18.2,28.52,ENE,68,7.8,7.8,52,0.00,,---,0.00,VWS V14.01,2013-01-10 13:22:00,
2013-01-10 08:27:00,33.8,17.6,28.52,WNW,292,9.8,9.8,51,0.00,,---,0.00,VWS V14.01,2013-01-10 13:27:00,
2013-01-10 08:32:00,34.5,18.3,28.52,WNW,292,8.1,8.1,51,0.00,,---,0.00,VWS V14.01,2013-01-10 13:32:00,
2013-01-10 08:37:00,34.5,17.8,28.52,WSW,248,10.1,10.1,50,0.00,,---,0.00,VWS V14.01,2013-01-10 13:37:00,
2013-01-10 08:42:00,34.0,17.3,28.52,WNW,292,10.7,10.7,50,0.00,,---,0.00,VWS V14.01,2013-01-10 13:42:00,
2013-01-10 08:47:00,34.9,18.6,28.52,WNW,292,3.8,7.4,51,0.00,,---,0.00,VWS V14.01,2013-01-10 13:47:00,
2013-01-10 08:52:00,34.5,17.8,28.55,NNW,338,3.8,5.4,50,0.00,,---,0.00,VWS V14.01,2013-01-10 13:52:00,
2013-01-10 08:57:00,35.2,18.0,28.55,SW,225,3.4,3.6,49,0.00,,---,0.00,VWS V14.01,2013-01-10 13:57:00,
2013-01-10 09:02:00,35.6,17.9,28.55,NW,315,6.0,6.0,48,0.00,,---,0.00,VWS V14.01,2013-01-10 14:02:00,
2013-01-10 09:07:00,36.5,18.7,28.55,WNW,292,6.0,6.0,48,0.00,,---,0.00,VWS V14.01,2013-01-10 14:07:00,
2013-01-10 09:12:00,36.9,18.0,28.55,West,270,6.5,7.8,46,0.00,,---,0.00,VWS V14.01,2013-01-10 14:12:00,
2013-01-10 09:17:00,36.5,17.7,28.55,WNW,292,3.1,5.6,46,0.00,,---,0.00,VWS V14.01,2013-01-10 14:17:00,
2013-01-10 09:22:00,36.3,17.5,28.55,NW,315,6.3,6.3,46,0.00,,---,0.00,VWS V14.01,2013-01-10 14:22:00,
2013-01-10 09:27:00,36.3,17.5,28.55,NNW,338,4.0,7.8,46,0.00,,---,0.00,VWS V14.01,2013-01-10 14:27:00,
2013-01-10 09:32:00,36.5,17.7,28.55,NW,315,7.6,7.6,46,0.00,,---,0.00,VWS V14.01,2013-01-10 14:32:00,
2013-01-10 09:37:00,36.3,17.0,28.55,WNW,292,10.1,10.1,45,0.00,,---,0.00,VWS V14.01,2013-01-10 14:37:00,
2013-01-10 09:42:00,36.5,17.2,28.55,WNW,292,7.8,7.8,45,0.00,,---,0.00,VWS V14.01,2013-01-10 14:42:00,
2013-01-10 09:47:00,36.9,17.5,28.55,WNW,292,10.7,10.7,45,0.00,,---,0.00,VWS V14.01,2013-01-10 14:47:00,
2013-01-10 09:52:00,36.7,16.8,28.52,WNW,292,9.4,9.4,44,0.00,,---,0.00,VWS V14.01,2013-01-10 14:52:00,
2013-01-10 09:57:00,36.9,17.5,28.52,West,270,5.4,8.1,45,0.00,,---,0.00,VWS V14.01,2013-01-10 14:57:00,
2013-01-10 10:02:00,37.9,18.0,28.52,NW,315,7.8,7.8,44,0.00,,---,0.00,VWS V14.01,2013-01-10 15:02:00,
2013-01-10 10:07:00,37.9,17.5,28.52,NNW,338,6.5,6.5,43,0.00,,---,0.00,VWS V14.01,2013-01-10 15:07:00,
2013-01-10 10:12:00,37.4,17.0,28.55,NW,315,10.5,10.5,43,0.00,,---,0.00,VWS V14.01,2013-01-10 15:12:00,
2013-01-10 10:17:00,38.3,18.3,28.55,NNW,338,3.8,3.8,44,0.00,,---,0.00,VWS V14.01,2013-01-10 15:17:00,
2013-01-10 10:22:00,37.4,17.0,28.55,NNW,338,6.5,8.1,43,0.00,,---,0.00,VWS V14.01,2013-01-10 15:22:00,
2013-01-10 10:27:00,38.3,17.8,28.52,NNW,338,9.0,9.0,43,0.00,,---,0.00,VWS V14.01,2013-01-10 15:27:00,
2013-01-10 10:32:00,38.5,17.9,28.52,WSW,248,5.8,7.6,43,0.00,,---,0.00,VWS V14.01,2013-01-10 15:32:00,
2013-01-10 10:37:00,37.6,17.1,28.55,NW,315,12.5,12.5,43,0.00,,---,0.00,VWS V14.01,2013-01-10 15:37:00,
2013-01-10 10:42:00,39.4,18.8,28.55,WNW,292,4.9,8.5,43,0.00,,---,0.00,VWS V14.01,2013-01-10 15:42:00,
2013-01-10 10:47:00,38.3,18.3,28.55,NW,315,7.8,7.8,44,0.00,,---,0.00,VWS V14.01,2013-01-10 15:47:00,
2013-01-10 10:52:00,39.4,18.2,28.55,NNW,338,7.6,8.5,42,0.00,,---,0.00,VWS V14.01,2013-01-10 15:52:00,
2013-01-10 10:57:00,40.1,18.9,28.55,NNW,338,5.6,8.5,42,0.00,,---,0.00,VWS V14.01,2013-01-10 15:57:00,
2013-01-10 11:02:00,39.4,18.2,28.55,WSW,248,13.2,13.2,42,0.00,,---,0.00,VWS V14.01,2013-01-10 16:02:00,
2013-01-10 11:07:00,38.3,17.8,28.52,NW,315,10.3,10.3,43,0.00,,---,0.00,VWS V14.01,2013-01-10 16:07:00,
2013-01-10 11:12:00,38.5,17.9,28.52,WNW,292,6.0,15.4,43,0.00,,---,0.00,VWS V14.01,2013-01-10 16:12:00,
2013-01-10 11:17:00,39.4,18.2,28.52,WSW,248,8.1,8.1,42,0.00,,---,0.00,VWS V14.01,2013-01-10 16:17:00,
2013-01-10 11:22:00,39.2,18.0,28.55,West,270,10.7,10.7,42,0.00,,---,0.00,VWS V14.01,2013-01-10 16:22:00,
2013-01-10 11:27:00,38.8,17.7,28.55,WNW,292,8.7,8.7,42,0.00,,---,0.00,VWS V14.01,2013-01-10 16:27:00,
2013-01-10 11:32:00,39.6,18.4,28.55,NW,315,6.3,6.3,42,0.00,,---,0.00,VWS V14.01,2013-01-10 16:32:00,
2013-01-10 11:37:00,38.8,18.3,28.52,West,270,7.4,7.8,43,0.00,,---,0.00,VWS V14.01,2013-01-10 16:37:00,
2013-01-10 11:42:00,38.1,17.6,28.52,WNW,292,5.8,7.4,43,0.00,,---,0.00,VWS V14.01,2013-01-10 16:42:00,
2013-01-10 11:47:00,38.5,17.9,28.52,WNW,292,8.7,9.2,43,0.00,,---,0.00,VWS V14.01,2013-01-10 16:47:00,
2013-01-10 11:52:00,38.7,17.6,28.52,NNW,338,7.2,7.2,42,0.00,,---,0.00,VWS V14.01,2013-01-10 16:52:00,
2013-01-10 11:57:00,38.8,18.3,28.52,NNW,338,10.5,14.8,43,0.00,,---,0.00,VWS V14.01,2013-01-10 16:57:00,
2013-01-10 12:02:00,38.7,18.1,28.52,NNW,338,7.6,7.8,43,0.00,,---,0.00,VWS V14.01,2013-01-10 17:02:00,
2013-01-10 12:07:00,38.7,18.6,28.52,NNW,338,7.4,7.4,44,0.00,,---,0.00,VWS V14.01,2013-01-10 17:07:00,
2013-01-10 12:12:00,38.7,18.1,28.52,West,270,7.6,10.3,43,0.00,,---,0.00,VWS V14.01,2013-01-10 17:12:00,
2013-01-10 12:17:00,38.8,17.7,28.52,NNW,338,7.8,7.8,42,0.00,,---,0.00,VWS V14.01,2013-01-10 17:17:00,
2013-01-10 12:22:00,39.9,19.2,28.52,NW,315,6.0,6.5,43,0.00,,---,0.00,VWS V14.01,2013-01-10 17:22:00,
2013-01-10 12:27:00,38.7,17.6,28.52,WNW,292,9.2,9.2,42,0.00,,---,0.00,VWS V14.01,2013-01-10 17:27:00,
2013-01-10 12:32:00,39.2,18.0,28.52,WNW,292,7.6,7.8,42,0.00,,---,0.00,VWS V14.01,2013-01-10 17:32:00,
2013-01-10 12:37:00,38.7,17.6,28.52,NW,315,5.8,6.0,42,0.00,,---,0.00,VWS V14.01,2013-01-10 17:37:00,
2013-01-10 12:42:00,39.0,17.9,28.52,NW,315,5.8,5.8,42,0.00,,---,0.00,VWS V14.01,2013-01-10 17:42:00,
2013-01-10 12:47:00,39.4,18.2,28.52,NNW,338,8.5,8.5,42,0.00,,---,0.00,VWS V14.01,2013-01-10 17:47:00,
2013-01-10 12:52:00,39.4,17.7,28.52,NW,315,6.0,12.8,41,0.00,,---,0.00,VWS V14.01,2013-01-10 17:52:00,
2013-01-10 12:57:00,39.2,17.5,28.52,SW,225,4.0,6.0,41,0.00,,---,0.00,VWS V14.01,2013-01-10 17:57:00,
2013-01-10 13:02:00,39.9,18.7,28.52,WNW,292,8.5,9.2,42,0.00,,---,0.00,VWS V14.01,2013-01-10 18:02:00,
2013-01-10 13:07:00,39.6,17.8,28.52,WSW,248,5.4,6.5,41,0.00,,---,0.00,VWS V14.01,2013-01-10 18:07:00,
2013-01-10 13:12:00,39.2,17.5,28.52,NW,315,11.9,11.9,41,0.00,,---,0.00,VWS V14.01,2013-01-10 18:12:00,
2013-01-10 13:17:00,39.6,17.8,28.52,WNW,292,8.1,8.5,41,0.00,,---,0.00,VWS V14.01,2013-01-10 18:17:00,
2013-01-10 13:22:00,39.7,18.0,28.55,NW,315,6.3,6.3,41,0.00,,---,0.00,VWS V14.01,2013-01-10 18:22:00,
2013-01-10 13:27:00,39.9,17.6,28.55,NNW,338,6.0,6.5,40,0.00,,---,0.00,VWS V14.01,2013-01-10 18:27:00,
2013-01-10 13:32:00,40.1,17.7,28.55,WNW,292,10.3,10.3,40,0.00,,---,0.00,VWS V14.01,2013-01-10 18:32:00,
2013-01-10 13:37:00,40.3,17.9,28.52,WNW,292,11.2,11.2,40,0.00,,---,0.00,VWS V14.01,2013-01-10 18:37:00,
2013-01-10 13:42:00,40.1,18.3,28.52,NW,315,13.2,14.8,41,0.00,,---,0.00,VWS V14.01,2013-01-10 18:42:00,
2013-01-10 13:47:00,40.1,18.3,28.52,NW,315,5.8,5.8,41,0.00,,---,0.00,VWS V14.01,2013-01-10 18:47:00,
2013-01-10 13:52:00,39.7,18.0,28.55,NNW,338,15.4,15.4,41,0.00,,---,0.00,VWS V14.01,2013-01-10 18:52:00,
2013-01-10 13:57:00,40.3,19.0,28.55,NNW,338,2.9,2.9,42,0.00,,---,0.00,VWS V14.01,2013-01-10 18:57:00,
2013-01-10 14:02:00,40.6,18.8,28.55,West,270,2.9,10.3,41,0.00,,---,0.00,VWS V14.01,2013-01-10 19:02:00,
2013-01-10 14:07:00,41.5,19.6,28.55,NNW,338,2.9,2.9,41,0.00,,---,0.00,VWS V14.01,2013-01-10 19:07:00,
2013-01-10 14:12:00,40.5,18.6,28.55,WNW,292,6.3,6.3,41,0.00,,---,0.00,VWS V14.01,2013-01-10 19:12:00,
2013-01-10 14:17:00,40.5,18.6,28.55,NW,315,7.4,7.4,41,0.00,,---,0.00,VWS V14.01,2013-01-10 19:17:00,
2013-01-10 14:22:00,40.3,18.5,28.55,WSW,248,6.3,8.7,41,0.00,,---,0.00,VWS V14.01,2013-01-10 19:22:00,
2013-01-10 14:27:00,40.3,18.5,28.55,WNW,292,8.1,8.1,41,0.00,,---,0.00,VWS V14.01,2013-01-10 19:27:00,
2013-01-10 14:32:00,40.5,18.6,28.55,WNW,292,12.8,12.8,41,0.00,,---,0.00,VWS V14.01,2013-01-10 19:32:00,
2013-01-10 14:37:00,40.1,18.3,28.55,NW,315,3.6,3.6,41,0.00,,---,0.00,VWS V14.01,2013-01-10 19:37:00,
2013-01-10 14:42:00,40.3,18.5,28.55,NNW,338,6.5,7.4,41,0.00,,---,0.00,VWS V14.01,2013-01-10 19:42:00,
2013-01-10 14:47:00,39.4,17.7,28.55,WNW,292,10.1,12.8,41,0.00,,---,0.00,VWS V14.01,2013-01-10 19:47:00,
2013-01-10 14:52:00,39.0,17.9,28.55,WNW,292,12.3,12.3,42,0.00,,---,0.00,VWS V14.01,2013-01-10 19:52:00,
2013-01-10 14:57:00,39.2,18.0,28.55,NW,315,6.5,6.5,42,0.00,,---,0.00,VWS V14.01,2013-01-10 19:57:00,
2013-01-10 15:02:00,39.4,18.2,28.55,NNW,338,2.9,3.6,42,0.00,,---,0.00,VWS V14.01,2013-01-10 20:02:00,
2013-01-10 15:07:00,39.9,18.7,28.55,WNW,292,2.2,4.9,42,0.00,,---,0.00,VWS V14.01,2013-01-10 20:07:00,
2013-01-10 15:12:00,39.7,18.5,28.55,NNW,338,2.7,4.7,42,0.00,,---,0.00,VWS V14.01,2013-01-10 20:12:00,
2013-01-10 15:17:00,39.2,17.5,28.55,WNW,292,5.4,9.6,41,0.00,,---,0.00,VWS V14.01,2013-01-10 20:17:00,
2013-01-10 15:22:00,39.4,17.7,28.55,NW,315,6.5,6.5,41,0.00,,---,0.00,VWS V14.01,2013-01-10 20:22:00,
2013-01-10 15:27:00,38.7,17.6,28.55,West,270,4.9,8.5,42,0.00,,---,0.00,VWS V14.01,2013-01-10 20:27:00,
2013-01-10 15:32:00,38.8,17.7,28.55,NNW,338,4.9,5.6,42,0.00,,---,0.00,VWS V14.01,2013-01-10 20:32:00,
2013-01-10 15:37:00,37.9,17.5,28.55,NNW,338,5.4,8.1,43,0.00,,---,0.00,VWS V14.01,2013-01-10 20:37:00,
2013-01-10 15:42:00,37.8,17.8,28.55,WNW,292,6.3,6.3,44,0.00,,---,0.00,VWS V14.01,2013-01-10 20:42:00,
2013-01-10 15:47:00,37.0,17.7,28.55,West,270,7.4,7.4,45,0.00,,---,0.00,VWS V14.01,2013-01-10 20:47:00,
2013-01-10 15:52:00,36.9,17.5,28.55,WNW,292,6.3,11.0,45,0.00,,---,0.00,VWS V14.01,2013-01-10 20:52:00,
2013-01-10 15:57:00,36.3,17.5,28.55,WNW,292,4.0,4.0,46,0.00,,---,0.00,VWS V14.01,2013-01-10 20:57:00,
2013-01-10 16:02:00,35.4,17.7,28.55,NNW,338,4.0,6.5,48,0.00,,---,0.00,VWS V14.01,2013-01-10 21:02:00,
2013-01-10 16:07:00,34.5,17.8,28.55,NNW,338,3.4,3.8,50,0.00,,---,0.00,VWS V14.01,2013-01-10 21:07:00,
2013-01-10 16:12:00,34.0,17.8,28.55,NNW,338,3.8,5.8,51,0.00,,---,0.00,VWS V14.01,2013-01-10 21:12:00,
2013-01-10 16:17:00,33.6,18.3,28.55,NW,315,2.5,6.0,53,0.00,,---,0.00,VWS V14.01,2013-01-10 21:17:00,
2013-01-10 16:22:00,33.3,18.4,28.52,WNW,292,6.0,7.6,54,0.00,,---,0.00,VWS V14.01,2013-01-10 21:22:00,
2013-01-10 16:27:00,33.1,18.3,28.52,NW,315,6.5,6.5,54,0.00,,---,0.00,VWS V14.01,2013-01-10 21:27:00,
2013-01-10 16:32:00,32.7,18.4,28.52,NW,315,6.3,6.3,55,0.00,,---,0.00,VWS V14.01,2013-01-10 21:32:00,
2013-01-10 16:37:00,32.4,18.0,28.55,WNW,292,5.8,10.1,55,0.00,,---,0.00,VWS V14.01,2013-01-10 21:37:00,
2013-01-10 16:42:00,32.2,18.3,28.55,WSW,248,6.0,6.0,56,0.00,,---,0.00,VWS V14.01,2013-01-10 21:42:00,
2013-01-10 16:47:00,31.8,17.9,28.55,NNW,338,3.1,3.8,56,0.00,,---,0.00,VWS V14.01,2013-01-10 21:47:00,
2013-01-10 16:52:00,31.6,18.2,28.55,NNW,338,3.1,3.1,57,0.00,,---,0.00,VWS V14.01,2013-01-10 21:52:00,
2013-01-10 16:57:00,31.3,18.2,28.55,WNW,292,4.9,5.4,58,0.00,,---,0.00,VWS V14.01,2013-01-10 21:57:00,
2013-01-10 17:02:00,31.5,18.8,28.55,NNW,338,3.8,5.4,59,0.00,,---,0.00,VWS V14.01,2013-01-10 22:02:00,
2013-01-10 17:07:00,31.1,18.5,28.55,NNW,338,3.4,4.0,59,0.00,,---,0.00,VWS V14.01,2013-01-10 22:07:00,
2013-01-10 17:12:00,31.1,18.9,28.55,NNW,338,6.0,7.6,60,0.00,,---,0.00,VWS V14.01,2013-01-10 22:12:00,
2013-01-10 17:17:00,31.1,18.9,28.55,WNW,292,7.8,7.8,60,0.00,,---,0.00,VWS V14.01,2013-01-10 22:17:00,
2013-01-10 17:22:00,31.1,18.9,28.55,WNW,292,5.4,5.4,60,0.00,,---,0.00,VWS V14.01,2013-01-10 22:22:00,
2013-01-10 17:27:00,30.9,19.1,28.55,NNW,338,10.3,10.3,61,0.00,,---,0.00,VWS V14.01,2013-01-10 22:27:00,
2013-01-10 17:32:00,30.7,18.9,28.55,West,270,3.6,6.3,61,0.00,,---,0.00,VWS V14.01,2013-01-10 22:32:00,
2013-01-10 17:37:00,30.2,18.4,28.55,NW,315,5.4,5.4,61,0.00,,---,0.00,VWS V14.01,2013-01-10 22:37:00,
2013-01-10 17:42:00,30.4,18.6,28.55,NW,315,3.6,4.0,61,0.00,,---,0.00,VWS V14.01,2013-01-10 22:42:00,
2013-01-10 17:47:00,30.2,18.8,28.55,NNW,338,5.4,5.6,62,0.00,,---,0.00,VWS V14.01,2013-01-10 22:47:00,
2013-01-10 17:52:00,30.0,19.0,28.55,WNW,292,5.4,5.4,63,0.00,,---,0.00,VWS V14.01,2013-01-10 22:52:00,
2013-01-10 17:57:00,29.8,18.8,28.55,NNW,338,2.9,3.4,63,0.00,,---,0.00,VWS V14.01,2013-01-10 22:57:00,
2013-01-10 18:02:00,29.7,18.6,28.55,NNW,338,3.1,6.3,63,0.00,,---,0.00,VWS V14.01,2013-01-10 23:02:00,
2013-01-10 18:07:00,29.8,19.2,28.55,WNW,292,3.1,4.3,64,0.00,,---,0.00,VWS V14.01,2013-01-10 23:07:00,
2013-01-10 18:12:00,29.5,18.8,28.55,NNW,338,1.6,4.0,64,0.00,,---,0.00,VWS V14.01,2013-01-10 23:12:00,
2013-01-10 18:17:00,29.5,18.8,28.55,NW,315,2.5,3.1,64,0.00,,---,0.00,VWS V14.01,2013-01-10 23:17:00,
2013-01-10 18:22:00,29.1,18.5,28.58,WSW,248,3.1,3.1,64,0.00,,---,0.00,VWS V14.01,2013-01-10 23:22:00,
2013-01-10 18:27:00,28.9,18.3,28.58,WSW,248,0.0,3.1,64,0.00,,---,0.00,VWS V14.01,2013-01-10 23:27:00,
2013-01-10 18:32:00,28.6,17.6,28.58,WNW,292,3.6,3.6,63,0.00,,---,0.00,VWS V14.01,2013-01-10 23:32:00,
2013-01-10 18:38:00,28.6,18.0,28.58,WNW,292,3.4,3.4,64,0.00,,---,0.00,VWS V14.01,2013-01-10 23:38:00,
2013-01-10 18:43:00,28.6,18.0,28.58,WSW,248,4.3,5.4,64,0.00,,---,0.00,VWS V14.01,2013-01-10 23:43:00,
2013-01-10 18:48:00,28.8,18.9,28.58,WNW,292,0.0,0.0,66,0.00,,---,0.00,VWS V14.01,2013-01-10 23:48:00,
2013-01-10 18:53:00,28.6,18.3,28.61,NW,315,2.9,3.6,65,0.00,,---,0.00,VWS V14.01,2013-01-10 23:53:00,
2013-01-10 18:58:00,28.0,18.2,28.61,WNW,292,3.6,4.7,66,0.00,,---,0.00,VWS V14.01,2013-01-10 23:58:00,
2013-01-10 19:03:00,27.7,17.8,28.61,NNE,22,3.1,3.1,66,0.00,,---,0.00,VWS V14.01,2013-01-11 00:03:00,
2013-01-10 19:08:00,27.5,18.0,28.61,WNW,292,2.5,2.5,67,0.00,,---,0.00,VWS V14.01,2013-01-11 00:08:00,
2013-01-10 19:13:00,27.7,18.5,28.61,WNW,292,2.9,3.1,68,0.00,,---,0.00,VWS V14.01,2013-01-11 00:13:00,
2013-01-10 19:18:00,27.7,18.9,28.61,ENE,68,0.0,0.0,69,0.00,,---,0.00,VWS V14.01,2013-01-11 00:18:00,
2013-01-10 19:23:00,27.9,19.0,28.61,NNW,338,0.0,0.0,69,0.00,,---,0.00,VWS V14.01,2013-01-11 00:23:00,
2013-01-10 19:28:00,28.0,19.2,28.61,NNW,338,2.5,2.7,69,0.00,,---,0.00,VWS V14.01,2013-01-11 00:28:00,
2013-01-10 19:33:00,27.9,18.7,28.61,WNW,292,0.0,2.2,68,0.00,,---,0.00,VWS V14.01,2013-01-11 00:33:00,
2013-01-10 19:38:00,27.5,18.7,28.61,NW,315,5.6,5.6,69,0.00,,---,0.00,VWS V14.01,2013-01-11 00:38:00,
2013-01-10 19:43:00,28.2,20.0,28.61,NNW,338,4.0,5.8,71,0.00,,---,0.00,VWS V14.01,2013-01-11 00:43:00,
2013-01-10 19:48:00,27.9,19.0,28.61,WNW,292,3.6,3.6,69,0.00,,---,0.00,VWS V14.01,2013-01-11 00:48:00,
2013-01-10 19:53:00,28.0,19.2,28.61,WNW,292,3.1,3.1,69,0.00,,---,0.00,VWS V14.01,2013-01-11 00:53:00,
2013-01-10 19:58:00,27.9,18.7,28.61,NNW,338,2.7,3.4,68,0.00,,---,0.00,VWS V14.01,2013-01-11 00:58:00,
2013-01-10 20:03:00,28.0,18.9,28.61,NNW,338,0.0,0.0,68,0.00,,---,0.00,VWS V14.01,2013-01-11 01:03:00,
2013-01-10 20:08:00,27.9,18.7,28.61,NW,315,2.0,2.0,68,0.00,,---,0.00,VWS V14.01,2013-01-11 01:08:00,
2013-01-10 20:13:00,27.9,18.7,28.61,NNW,338,3.8,4.3,68,0.00,,---,0.00,VWS V14.01,2013-01-11 01:13:00,
2013-01-10 20:18:00,28.0,19.2,28.61,WNW,292,3.6,3.8,69,0.00,,---,0.00,VWS V14.01,2013-01-11 01:18:00,
2013-01-10 20:23:00,27.9,18.7,28.61,NNE,22,0.0,0.0,68,0.00,,---,0.00,VWS V14.01,2013-01-11 01:23:00,
2013-01-10 20:28:00,27.9,18.7,28.61,NNW,338,3.6,3.6,68,0.00,,---,0.00,VWS V14.01,2013-01-11 01:28:00,
2013-01-10 20:33:00,28.4,19.5,28.61,NNW,338,4.0,4.0,69,0.00,,---,0.00,VWS V14.01,2013-01-11 01:33:00,
2013-01-10 20:38:00,28.0,18.9,28.61,SSE,158,1.3,1.3,68,0.00,,---,0.00,VWS V14.01,2013-01-11 01:38:00,
2013-01-10 20:43:00,27.7,18.5,28.61,NNW,338,2.9,2.9,68,0.00,,---,0.00,VWS V14.01,2013-01-11 01:43:00,
2013-01-10 20:48:00,27.3,18.2,28.61,NNW,338,2.2,2.5,68,0.00,,---,0.00,VWS V14.01,2013-01-11 01:48:00,
2013-01-10 20:53:00,27.0,17.5,28.61,NW,315,3.8,3.8,67,0.00,,---,0.00,VWS V14.01,2013-01-11 01:53:00,
2013-01-10 20:58:00,27.3,18.8,28.61,WNW,292,2.9,4.0,70,0.00,,---,0.00,VWS V14.01,2013-01-11 01:58:00,
2013-01-10 21:03:00,27.1,18.7,28.61,NW,315,2.5,2.5,70,0.00,,---,0.00,VWS V14.01,2013-01-11 02:03:00,
2013-01-10 21:08:00,26.6,17.8,28.61,WNW,292,2.5,2.5,69,0.00,,---,0.00,VWS V14.01,2013-01-11 02:08:00,
2013-01-10 21:13:00,26.2,17.5,28.61,NNW,338,1.1,2.5,69,0.00,,---,0.00,VWS V14.01,2013-01-11 02:13:00,
2013-01-10 21:18:00,26.1,17.6,28.61,SSW,202,0.0,0.0,70,0.00,,---,0.00,VWS V14.01,2013-01-11 02:18:00,
2013-01-10 21:23:00,25.5,17.1,28.61,ESE,112,0.0,0.0,70,0.00,,---,0.00,VWS V14.01,2013-01-11 02:23:00,
2013-01-10 21:28:00,25.5,17.1,28.61,SSW,202,0.0,0.0,70,0.00,,---,0.00,VWS V14.01,2013-01-11 02:28:00,
2013-01-10 21:33:00,25.5,17.4,28.61,ENE,68,0.0,0.0,71,0.00,,---,0.00,VWS V14.01,2013-01-11 02:33:00,
2013-01-10 21:38:00,25.7,17.9,28.61,East,90,0.0,0.0,72,0.00,,---,0.00,VWS V14.01,2013-01-11 02:38:00,
2013-01-10 21:43:00,25.9,18.4,28.61,SSW,202,0.0,0.0,73,0.00,,---,0.00,VWS V14.01,2013-01-11 02:43:00,
2013-01-10 21:48:00,26.1,18.9,28.61,SSW,202,0.0,0.0,74,0.00,,---,0.00,VWS V14.01,2013-01-11 02:48:00,
2013-01-10 21:53:00,26.1,18.9,28.61,ESE,112,0.0,0.0,74,0.00,,---,0.00,VWS V14.01,2013-01-11 02:53:00,
2013-01-10 21:58:00,26.1,18.9,28.61,South,180,1.1,2.0,74,0.00,,---,0.00,VWS V14.01,2013-01-11 02:58:00,
2013-01-10 22:03:00,26.2,19.4,28.61,SW,225,0.0,1.1,75,0.00,,---,0.00,VWS V14.01,2013-01-11 03:03:00,
2013-01-10 22:08:00,26.2,19.4,28.61,WSW,248,0.0,0.0,75,0.00,,---,0.00,VWS V14.01,2013-01-11 03:08:00,
2013-01-10 22:13:00,26.1,18.9,28.61,SW,225,0.0,0.0,74,0.00,,---,0.00,VWS V14.01,2013-01-11 03:13:00,
2013-01-10 22:18:00,26.1,18.9,28.61,WSW,248,0.0,0.0,74,0.00,,---,0.00,VWS V14.01,2013-01-11 03:18:00,
2013-01-10 22:23:00,25.9,18.4,28.58,ENE,68,0.0,0.0,73,0.00,,---,0.00,VWS V14.01,2013-01-11 03:23:00,
2013-01-10 22:28:00,25.9,18.4,28.58,NNW,338,0.0,1.6,73,0.00,,---,0.00,VWS V14.01,2013-01-11 03:28:00,
2013-01-10 22:33:00,25.9,19.1,28.58,NNW,338,0.0,0.0,75,0.00,,---,0.00,VWS V14.01,2013-01-11 03:33:00,
2013-01-10 22:38:00,25.7,18.9,28.61,NNW,338,0.0,0.0,75,0.00,,---,0.00,VWS V14.01,2013-01-11 03:38:00,
2013-01-10 22:43:00,25.3,18.2,28.61,NNW,338,0.0,0.0,74,0.00,,---,0.00,VWS V14.01,2013-01-11 03:43:00,
2013-01-10 22:48:00,25.3,18.2,28.61,NNE,22,0.0,0.0,74,0.00,,---,0.00,VWS V14.01,2013-01-11 03:48:00,
2013-01-10 22:53:00,25.3,18.5,28.61,WSW,248,0.0,0.0,75,0.00,,---,0.00,VWS V14.01,2013-01-11 03:53:00,
2013-01-10 22:58:00,25.3,18.2,28.61,NNW,338,0.0,0.0,74,0.00,,---,0.00,VWS V14.01,2013-01-11 03:58:00,
2013-01-10 23:03:00,25.5,18.7,28.61,NW,315,0.0,0.0,75,0.00,,---,0.00,VWS V14.01,2013-01-11 04:03:00,
2013-01-10 23:08:00,25.3,18.5,28.61,NNE,22,0.0,0.0,75,0.00,,---,0.00,VWS V14.01,2013-01-11 04:08:00,
2013-01-10 23:13:00,25.5,19.0,28.61,NNE,22,0.0,0.0,76,0.00,,---,0.00,VWS V14.01,2013-01-11 04:13:00,
2013-01-10 23:18:00,25.7,19.2,28.61,ENE,68,0.0,0.0,76,0.00,,---,0.00,VWS V14.01,2013-01-11 04:18:00,
2013-01-10 23:23:00,26.1,19.5,28.61,SE,135,1.3,1.3,76,0.00,,---,0.00,VWS V14.01,2013-01-11 04:23:00,
2013-01-10 23:28:00,25.9,19.1,28.61,ESE,112,0.0,0.0,75,0.00,,---,0.00,VWS V14.01,2013-01-11 04:28:00,
2013-01-10 23:33:00,25.5,18.7,28.61,NE,45,0.0,0.0,75,0.00,,---,0.00,VWS V14.01,2013-01-11 04:33:00,
2013-01-10 23:38:00,25.7,18.9,28.61,ENE,68,0.0,0.0,75,0.00,,---,0.00,VWS V14.01,2013-01-11 04:38:00,
2013-01-10 23:43:00,25.5,18.7,28.61,ENE,68,0.0,0.0,75,0.00,,---,0.00,VWS V14.01,2013-01-11 04:43:00,
2013-01-10 23:48:00,25.5,18.7,28.61,ENE,68,0.0,0.0,75,0.00,,---,0.00,VWS V14.01,2013-01-11 04:48:00,
2013-01-10 23:53:00,26.1,19.5,28.61,ENE,68,0.0,0.0,76,0.00,,---,0.00,VWS V14.01,2013-01-11 04:53:00,
2013-01-10 23:58:00,25.5,19.3,28.61,NNE,22,0.0,0.0,77,0.00,,---,0.00,VWS V14.01,2013-01-11 04:58:00,